Time;durP1;ratioP1;P1;durP2;ratioP2;P2;SDS_P1;SDS_P2;PMS_P1;PMS_P2;Temp;Humidity;BMP_temperature;BMP_pressure;BME280_temperature;BME280_humidity;BME280_pressure;Samples;Min_cycle;Max_cycle;Signal;HPM_P1;HPM_P2
2022/04/20 00:01:22;;;;;;;4.60;3.25;;;5.30;99.90;;;;;;5088747;28;20099;-50
2022/04/20 00:03:51;;;;;;;3.40;3.10;;;5.20;99.90;;;;;;5089027;28;20016;-52
2022/04/20 00:06:17;;;;;;;4.93;3.10;;;5.20;99.90;;;;;;5088549;28;20650;-49
2022/04/20 00:08:42;;;;;;;5.75;3.85;;;5.20;99.90;;;;;;5088846;28;20032;-50
2022/04/20 00:11:08;;;;;;;6.70;3.65;;;5.20;99.90;;;;;;5088293;28;20020;-55
2022/04/20 00:13:35;;;;;;;5.20;3.65;;;5.20;99.90;;;;;;5088741;28;20475;-53
2022/04/20 00:16:01;;;;;;;3.38;3.00;;;5.10;99.90;;;;;;5094950;28;20028;-49
2022/04/20 00:18:26;;;;;;;4.40;3.40;;;5.10;99.90;;;;;;5088687;28;20024;-53
2022/04/20 00:20:52;;;;;;;4.38;3.08;;;5.10;99.90;;;;;;5088849;28;20031;-51
2022/04/20 00:23:17;;;;;;;3.75;3.45;;;5.10;99.90;;;;;;5088597;28;20027;-53
2022/04/20 00:25:43;;;;;;;5.78;3.60;;;5.00;99.90;;;;;;5088652;28;20102;-53
2022/04/20 00:28:08;;;;;;;6.40;3.22;;;5.00;99.90;;;;;;5088115;28;20051;-51
2022/04/20 00:30:34;;;;;;;4.93;3.70;;;5.00;99.90;;;;;;5088687;28;20643;-53
2022/04/20 00:32:59;;;;;;;4.07;3.30;;;5.00;99.90;;;;;;5092993;28;20035;-52
2022/04/20 00:35:26;;;;;;;7.88;3.22;;;4.90;99.90;;;;;;5073375;28;20047;-52
2022/04/20 00:37:51;;;;;;;4.40;3.22;;;4.90;99.90;;;;;;5089220;28;20028;-50
2022/04/20 00:40:17;;;;;;;3.95;3.03;;;4.90;99.90;;;;;;5091941;28;20030;-53
2022/04/20 00:42:43;;;;;;;6.57;3.42;;;4.90;99.90;;;;;;5092712;28;20042;-52
2022/04/20 00:45:11;;;;;;;5.88;3.38;;;4.90;99.90;;;;;;5092446;28;20134;-51
2022/04/20 00:47:37;;;;;;;3.80;3.50;;;4.90;99.90;;;;;;5091488;28;20104;-53
2022/04/20 00:50:04;;;;;;;4.18;3.40;;;4.80;99.90;;;;;;5092134;28;20066;-54
2022/04/20 00:52:30;;;;;;;5.80;2.60;;;4.80;99.90;;;;;;5091239;28;20483;-54
2022/04/20 00:54:55;;;;;;;4.88;3.75;;;4.80;99.90;;;;;;5091948;28;20061;-53
2022/04/20 00:57:21;;;;;;;4.03;3.25;;;4.80;99.90;;;;;;5092042;28;20032;-49
2022/04/20 00:59:49;;;;;;;4.15;2.70;;;4.80;99.90;;;;;;5089022;28;20036;-52
2022/04/20 01:02:14;;;;;;;5.88;4.07;;;4.80;99.90;;;;;;5089430;28;20448;-51
2022/04/20 01:04:40;;;;;;;5.18;3.40;;;4.80;99.90;;;;;;5090490;28;20032;-50
2022/04/20 01:07:13;;;;;;;5.75;3.22;;;4.70;99.90;;;;;;5092273;28;20422;-52
2022/04/20 01:09:39;;;;;;;5.03;3.50;;;4.70;99.90;;;;;;5073195;28;20048;-52
2022/04/20 01:12:06;;;;;;;3.47;2.58;;;4.70;99.90;;;;;;5091556;28;20042;-52
2022/04/20 01:14:31;;;;;;;3.92;3.50;;;4.70;99.90;;;;;;5089900;28;20025;-52
2022/04/20 01:16:57;;;;;;;4.00;3.53;;;4.70;99.90;;;;;;5091439;28;20108;-52
2022/04/20 01:19:30;;;;;;;4.88;3.53;;;4.70;99.90;;;;;;5092094;28;20047;-53
2022/04/20 01:21:56;;;;;;;4.95;4.00;;;4.70;99.90;;;;;;5091233;28;20483;-53
2022/04/20 01:24:21;;;;;;;8.35;3.83;;;4.70;99.90;;;;;;5090952;28;20082;-53
2022/04/20 01:26:47;;;;;;;6.15;3.58;;;4.70;99.90;;;;;;5091612;28;20104;-51
2022/04/20 01:29:14;;;;;;;4.53;3.25;;;4.70;99.90;;;;;;5091388;28;20078;-55
2022/04/20 01:31:40;;;;;;;5.00;3.13;;;4.70;99.90;;;;;;5091179;28;20347;-51
2022/04/20 01:34:05;;;;;;;5.07;3.65;;;4.60;99.90;;;;;;5091756;28;20028;-50
2022/04/20 01:36:31;;;;;;;5.40;3.20;;;4.60;99.90;;;;;;5091697;28;20168;-52
2022/04/20 01:38:56;;;;;;;5.00;3.60;;;4.60;99.90;;;;;;5090919;28;20020;-54
2022/04/20 01:41:22;;;;;;;3.78;3.10;;;4.60;99.90;;;;;;5090627;28;20021;-51
2022/04/20 01:43:47;;;;;;;5.50;3.75;;;4.60;99.90;;;;;;5091103;28;20471;-53
2022/04/20 01:46:15;;;;;;;5.40;3.25;;;4.50;99.90;;;;;;5072523;28;20035;-53
2022/04/20 01:48:40;;;;;;;4.60;3.70;;;4.50;99.90;;;;;;5090716;28;20032;-53
2022/04/20 01:53:50;;;;;;;7.43;4.18;;;4.40;99.90;;;;;;5091083;28;20089;-55
2022/04/20 01:56:16;;;;;;;4.70;3.42;;;4.40;99.90;;;;;;5091214;28;20650;-53
2022/04/20 01:58:41;;;;;;;5.43;3.40;;;4.40;99.90;;;;;;5090562;28;20039;-54
2022/04/20 02:02:34;;;;;;;4.13;3.17;;;4.40;99.90;;;;;;5072547;28;20039;-55
2022/04/20 02:03:52;;;;;;;5.25;3.83;;;4.40;99.90;;;;;;5090384;28;20073;-51
2022/04/20 02:06:18;;;;;;;4.15;3.22;;;4.30;99.90;;;;;;5090743;28;20425;-51
2022/04/20 02:08:43;;;;;;;6.32;3.75;;;4.30;99.90;;;;;;5090344;28;20063;-50
2022/04/20 02:11:09;;;;;;;9.10;3.20;;;4.30;99.90;;;;;;5091093;28;20081;-52
2022/04/20 02:13:34;;;;;;;7.50;3.72;;;4.30;99.90;;;;;;5090785;28;20141;-52
2022/04/20 02:16:00;;;;;;;2.92;2.63;;;4.20;99.90;;;;;;5090801;28;20110;-55
2022/04/20 02:18:25;;;;;;;5.05;3.47;;;4.20;99.90;;;;;;5090424;28;20078;-51
2022/04/20 02:20:52;;;;;;;5.00;3.25;;;4.10;99.90;;;;;;5072334;28;20027;-50
2022/04/20 02:23:18;;;;;;;4.47;3.38;;;4.10;99.90;;;;;;5071889;28;20031;-51
2022/04/20 02:25:43;;;;;;;6.65;3.33;;;4.10;99.90;;;;;;5090436;28;20024;-53
2022/04/20 02:28:09;;;;;;;5.25;2.90;;;4.10;99.90;;;;;;5088743;28;20031;-54
2022/04/20 02:30:34;;;;;;;3.58;3.13;;;4.10;99.90;;;;;;5086066;28;20066;-52
2022/04/20 02:33:01;;;;;;;5.93;3.33;;;4.00;99.90;;;;;;5089895;28;20120;-52
2022/04/20 02:35:27;;;;;;;5.13;3.28;;;4.00;99.90;;;;;;5090576;28;20028;-53
2022/04/20 02:37:53;;;;;;;4.43;3.05;;;4.00;99.90;;;;;;5089936;28;20036;-54
2022/04/20 02:40:19;;;;;;;5.00;3.40;;;4.00;99.90;;;;;;5089996;28;20392;-54
2022/04/20 02:42:45;;;;;;;3.85;3.03;;;4.00;99.90;;;;;;5089363;28;20020;-53
2022/04/20 02:45:11;;;;;;;6.13;3.17;;;4.00;99.90;;;;;;5090216;28;20020;-55
2022/04/20 02:47:37;;;;;;;3.83;2.50;;;4.00;99.90;;;;;;5071018;28;20588;-51
2022/04/20 02:50:02;;;;;;;5.28;3.08;;;4.00;99.90;;;;;;5090368;28;20024;-52
2022/04/20 02:52:28;;;;;;;3.90;3.00;;;3.90;99.90;;;;;;5092144;28;20043;-53
2022/04/20 02:54:53;;;;;;;4.00;2.88;;;3.90;99.90;;;;;;5110326;28;20118;-50
2022/04/20 02:57:19;;;;;;;3.85;3.05;;;3.90;99.90;;;;;;5100091;28;20039;-53
2022/04/20 02:59:44;;;;;;;6.10;3.30;;;3.80;99.90;;;;;;5105733;28;20028;-54
2022/04/20 03:02:10;;;;;;;4.07;3.10;;;3.80;99.90;;;;;;5089436;28;20024;-51
2022/04/20 03:04:36;;;;;;;5.35;3.30;;;3.80;99.90;;;;;;5089423;28;20432;-52
2022/04/20 03:07:01;;;;;;;3.67;3.22;;;3.80;99.90;;;;;;5070397;28;20164;-55
2022/04/20 03:09:27;;;;;;;3.50;2.83;;;3.80;99.90;;;;;;5089013;28;20479;-52
2022/04/20 03:11:53;;;;;;;3.17;2.88;;;3.80;99.90;;;;;;5089664;28;20149;-54
2022/04/20 03:14:18;;;;;;;3.17;2.65;;;3.80;99.90;;;;;;5089838;28;20075;-53
2022/04/20 03:16:44;;;;;;;3.67;3.30;;;3.70;99.90;;;;;;5089885;28;20438;-51
2022/04/20 03:19:10;;;;;;;4.55;2.92;;;3.70;99.90;;;;;;5089300;28;20024;-52
2022/04/20 03:21:35;;;;;;;5.15;3.08;;;3.70;99.90;;;;;;5089259;28;20032;-51
2022/04/20 03:24:01;;;;;;;3.00;2.75;;;3.70;99.90;;;;;;5089256;28;20035;-50
2022/04/20 03:26:26;;;;;;;5.68;3.35;;;3.70;99.90;;;;;;5071020;28;20077;-52
2022/04/20 03:28:52;;;;;;;4.72;3.03;;;3.70;99.90;;;;;;5105186;28;20397;-50
2022/04/20 03:31:17;;;;;;;5.13;3.20;;;3.70;99.90;;;;;;5109882;28;20039;-52
2022/04/20 03:33:43;;;;;;;4.43;3.28;;;3.70;99.90;;;;;;5098977;28;20071;-50
2022/04/20 03:36:10;;;;;;;6.97;3.25;;;3.70;99.90;;;;;;5089341;28;20036;-54
2022/04/20 03:38:36;;;;;;;3.72;3.17;;;3.60;99.90;;;;;;5088667;28;20043;-52
2022/04/20 03:41:05;;;;;;;3.10;2.80;;;3.60;99.90;;;;;;5087908;28;20121;-51
2022/04/20 03:43:31;;;;;;;3.95;3.20;;;3.60;99.90;;;;;;5089126;28;20032;-52
2022/04/20 03:45:57;;;;;;;4.57;3.38;;;3.60;99.90;;;;;;5070844;28;20038;-52
2022/04/20 03:48:23;;;;;;;4.75;3.50;;;3.60;99.90;;;;;;5088909;28;20119;-55
2022/04/20 03:50:49;;;;;;;4.00;2.83;;;3.60;99.90;;;;;;5089034;28;20024;-52
2022/04/20 03:53:15;;;;;;;3.92;3.13;;;3.60;99.90;;;;;;5089092;28;20053;-55
2022/04/20 03:55:41;;;;;;;3.85;3.38;;;3.50;99.90;;;;;;5089377;28;20098;-54
2022/04/20 03:58:06;;;;;;;6.88;3.80;;;3.50;99.90;;;;;;5088873;28;20032;-54
2022/04/20 04:00:32;;;;;;;6.47;3.10;;;3.50;99.90;;;;;;5091652;28;20063;-54
2022/04/20 04:02:57;;;;;;;5.43;3.58;;;3.50;99.90;;;;;;5091040;28;20075;-49
2022/04/20 06:29:51;;;;;;;5.60;3.40;;;6.10;99.90;;;;;;5117922;27;20529;-53
2022/04/20 06:32:18;;;;;;;6.63;3.38;;;6.40;99.90;;;;;;5039858;23;20610;-60
2022/04/20 06:34:44;;;;;;;4.07;3.45;;;6.50;99.90;;;;;;5006121;28;20027;-60
2022/04/20 06:37:14;;;;;;;3.92;3.22;;;6.60;99.90;;;;;;5006465;28;20532;-60
2022/04/20 06:39:40;;;;;;;4.25;2.95;;;6.70;99.90;;;;;;5006770;28;20389;-59
2022/04/20 06:42:07;;;;;;;8.45;3.65;;;6.80;99.90;;;;;;5006106;28;20446;-60
2022/04/20 06:44:33;;;;;;;4.60;3.42;;;6.90;99.90;;;;;;4989143;28;20022;-60
2022/04/20 06:46:59;;;;;;;4.93;3.80;;;7.20;99.90;;;;;;4987673;28;20165;-60
2022/04/20 06:49:25;;;;;;;4.63;3.03;;;7.30;99.90;;;;;;5006347;28;20076;-60
2022/04/20 07:00:04;;;;;;;3.13;2.83;;;8.20;99.90;;;;;;5006122;28;20044;-58
2022/04/20 07:02:29;;;;;;;4.97;2.95;;;8.40;99.90;;;;;;5005998;28;20041;-59
2022/04/20 07:04:55;;;;;;;5.03;2.63;;;8.60;99.90;;;;;;5006231;28;20026;-56
2022/04/20 07:07:21;;;;;;;4.10;2.70;;;8.80;99.90;;;;;;5005976;28;20022;-58
2022/04/20 07:09:46;;;;;;;3.65;2.78;;;9.00;99.90;;;;;;5015503;28;20057;-55
2022/04/20 07:12:12;;;;;;;2.97;2.30;;;9.10;99.90;;;;;;5025367;28;20052;-60
2022/04/20 07:14:38;;;;;;;2.85;2.53;;;9.30;99.90;;;;;;5025656;28;20074;-58
2022/04/20 07:17:04;;;;;;;3.45;2.40;;;9.50;99.90;;;;;;5025766;28;20051;-57
2022/04/20 07:19:30;;;;;;;3.10;2.47;;;9.80;99.90;;;;;;5024683;28;20100;-60
2022/04/20 07:21:56;;;;;;;2.95;2.50;;;9.90;99.90;;;;;;5025602;28;20117;-59
2022/04/20 07:24:21;;;;;;;3.13;2.65;;;10.00;99.90;;;;;;5025803;28;20053;-59
2022/04/20 07:26:47;;;;;;;5.55;2.83;;;10.20;99.90;;;;;;5018308;28;20074;-59
2022/04/20 07:29:12;;;;;;;5.35;2.85;;;10.30;99.90;;;;;;5000791;28;20026;-58
2022/04/20 07:31:38;;;;;;;2.70;2.45;;;10.30;99.90;;;;;;4975137;28;20454;-60
2022/04/20 07:34:03;;;;;;;2.75;2.17;;;10.50;99.90;;;;;;4975373;28;20050;-60
2022/04/20 07:36:29;;;;;;;4.00;2.25;;;10.80;99.90;;;;;;4992687;28;20035;-59
2022/04/20 07:38:55;;;;;;;5.13;2.03;;;10.90;99.90;;;;;;4992725;28;20045;-61
2022/04/20 07:41:20;;;;;;;4.13;2.42;;;10.90;99.10;;;;;;4992589;28;20113;-59
2022/04/20 07:43:46;;;;;;;2.75;2.47;;;11.00;98.70;;;;;;4974932;28;20413;-61
2022/04/20 07:46:16;;;;;;;3.50;2.50;;;11.10;99.00;;;;;;4992510;28;20027;-62
2022/04/20 07:48:42;;;;;;;3.85;2.30;;;11.40;99.30;;;;;;4992259;28;20106;-62
2022/04/20 07:51:08;;;;;;;3.95;2.03;;;11.60;98.70;;;;;;4992173;28;20629;-59
2022/04/20 07:53:34;;;;;;;2.53;2.00;;;11.70;97.80;;;;;;4991883;28;20043;-61
2022/04/20 07:56:00;;;;;;;2.63;2.15;;;11.90;97.40;;;;;;4992465;28;20023;-58
2022/04/20 07:58:25;;;;;;;3.78;2.10;;;12.20;95.90;;;;;;4992301;28;20030;-61
2022/04/20 08:00:53;;;;;;;1.88;1.65;;;12.30;96.40;;;;;;4992453;28;20470;-59
2022/04/20 08:03:19;;;;;;;3.55;2.00;;;12.50;95.70;;;;;;4991606;28;20053;-61
2022/04/20 08:05:50;;;;;;;2.33;1.80;;;12.80;95.40;;;;;;4974886;28;20022;-61
2022/04/20 08:08:18;;;;;;;2.17;1.80;;;12.90;94.00;;;;;;4974198;28;20038;-56
2022/04/20 08:10:44;;;;;;;2.75;1.83;;;12.80;93.60;;;;;;4991940;28;20030;-60
2022/04/20 08:15:55;;;;;;;3.03;1.88;;;12.70;92.90;;;;;;4992318;28;20084;-60
2022/04/20 08:18:21;;;;;;;3.78;2.20;;;12.60;93.10;;;;;;4991473;28;20031;-62
2022/04/20 08:20:47;;;;;;;1.88;1.77;;;12.90;93.40;;;;;;4974161;28;20082;-59
2022/04/20 08:23:13;;;;;;;2.17;1.98;;;13.10;92.50;;;;;;4991645;28;20029;-60
2022/04/20 08:25:39;;;;;;;2.22;2.00;;;13.30;91.40;;;;;;4991240;28;20030;-61
2022/04/20 08:28:06;;;;;;;3.45;1.90;;;13.50;91.50;;;;;;4991811;28;20026;-61
2022/04/20 08:30:32;;;;;;;3.58;2.10;;;13.60;90.50;;;;;;4990959;28;20544;-54
2022/04/20 08:32:58;;;;;;;3.80;2.10;;;13.60;89.40;;;;;;4991695;28;20035;-58
2022/04/20 08:35:23;;;;;;;2.85;2.20;;;13.50;90.40;;;;;;4977647;28;20034;-58
2022/04/20 08:37:49;;;;;;;3.78;2.65;;;13.80;91.00;;;;;;4994924;28;20049;-60
2022/04/20 08:40:15;;;;;;;3.35;2.13;;;14.00;90.60;;;;;;4991020;28;20439;-58
2022/04/20 08:42:41;;;;;;;2.92;2.65;;;14.40;90.00;;;;;;4990094;28;20513;-60
2022/04/20 08:45:08;;;;;;;3.22;2.20;;;14.20;88.30;;;;;;4973852;28;20069;-58
2022/04/20 08:47:39;;;;;;;2.92;2.40;;;14.20;87.70;;;;;;4990550;28;20041;-59
2022/04/20 08:50:07;;;;;;;2.17;1.98;;;14.00;87.20;;;;;;4985406;28;20025;-60
2022/04/20 08:52:39;;;;;;;3.17;2.22;;;14.00;86.90;;;;;;4975880;28;20026;-60
2022/04/20 08:55:07;;;;;;;3.63;2.13;;;14.00;86.90;;;;;;4990862;28;20053;-60
2022/04/20 08:57:34;;;;;;;4.30;1.60;;;13.80;87.30;;;;;;4991282;28;20026;-60
2022/04/20 09:00:01;;;;;;;2.85;1.88;;;13.90;86.40;;;;;;4973762;28;20038;-55
2022/04/20 09:02:28;;;;;;;2.75;2.20;;;13.70;86.70;;;;;;4990388;28;20027;-58
2022/04/20 09:04:54;;;;;;;3.47;2.22;;;13.70;89.60;;;;;;4991299;28;20034;-60
2022/04/20 09:07:20;;;;;;;2.35;1.98;;;14.00;89.80;;;;;;4990361;28;20042;-59
2022/04/20 09:09:46;;;;;;;3.42;2.00;;;14.20;87.50;;;;;;4990716;28;20089;-58
2022/04/20 09:12:19;;;;;;;2.47;1.73;;;14.30;87.20;;;;;;4990059;28;20030;-57
2022/04/20 09:14:50;;;;;;;3.28;2.13;;;14.10;87.30;;;;;;4989964;28;20046;-59
2022/04/20 09:17:19;;;;;;;2.13;1.90;;;14.00;87.40;;;;;;4989793;28;20096;-60
2022/04/20 09:19:46;;;;;;;2.40;1.88;;;14.20;89.30;;;;;;4990261;28;20027;-56
2022/04/20 09:22:29;;;;;;;3.20;2.42;;;14.20;88.40;;;;;;4990234;28;20113;-54
2022/04/20 09:24:58;;;;;;;2.53;1.90;;;14.30;87.50;;;;;;4990668;28;20022;-60
2022/04/20 09:27:25;;;;;;;2.70;1.85;;;14.30;87.70;;;;;;4972966;28;20076;-59
2022/04/20 09:29:55;;;;;;;2.10;1.90;;;14.30;89.00;;;;;;4990002;28;20509;-58
2022/04/20 09:32:31;;;;;;;3.45;1.90;;;14.30;88.60;;;;;;4990126;28;20084;-60
2022/04/20 09:35:03;;;;;;;3.03;2.17;;;14.70;88.60;;;;;;4988720;28;20023;-59
2022/04/20 09:37:29;;;;;;;2.30;2.10;;;14.80;87.80;;;;;;4973082;28;20034;-60
2022/04/20 09:39:55;;;;;;;2.53;1.90;;;14.80;86.50;;;;;;4990895;28;20509;-60
2022/04/20 09:42:20;;;;;;;2.05;1.83;;;14.80;87.90;;;;;;4989327;28;20034;-59
2022/04/20 09:44:59;;;;;;;3.55;2.38;;;15.00;87.20;;;;;;4972813;28;20049;-59
2022/04/20 09:50:13;;;;;;;2.47;1.88;;;15.30;85.70;;;;;;4987303;28;20080;-60
2022/04/20 09:52:43;;;;;;;2.88;2.00;;;15.40;86.90;;;;;;4984103;28;20030;-60
2022/04/20 09:55:12;;;;;;;3.25;1.90;;;15.50;85.40;;;;;;4988961;28;20441;-60
2022/04/20 09:57:38;;;;;;;3.78;2.05;;;15.30;85.30;;;;;;4988146;28;20507;-60
2022/04/20 10:00:13;;;;;;;2.33;1.85;;;15.10;85.00;;;;;;4997661;28;20052;-57
2022/04/20 10:02:52;;;;;;;2.60;1.70;;;15.00;85.60;;;;;;4984510;28;20026;-58
2022/04/20 10:05:20;;;;;;;2.42;2.20;;;15.10;84.80;;;;;;4991523;28;20045;-61
2022/04/20 10:07:46;;;;;;;3.25;2.33;;;15.10;85.60;;;;;;5004119;28;20038;-60
2022/04/20 10:10:11;;;;;;;2.85;1.83;;;15.20;85.10;;;;;;4974993;28;20481;-59
2022/04/20 10:12:42;;;;;;;2.33;1.63;;;15.20;83.50;;;;;;4989462;28;20030;-58
2022/04/20 10:17:56;;;;;;;3.08;2.15;;;15.10;83.70;;;;;;4988601;28;20029;-58
2022/04/20 10:20:26;;;;;;;2.05;1.70;;;15.10;84.80;;;;;;4989357;28;20030;-60
2022/04/20 10:22:53;;;;;;;2.92;1.75;;;15.20;84.30;;;;;;4989886;28;20034;-56
2022/04/20 10:25:19;;;;;;;2.22;1.48;;;15.20;84.20;;;;;;4988873;28;20038;-58
2022/04/20 10:28:06;;;;;;;3.85;1.92;;;14.90;83.20;;;;;;4989335;28;20030;-60
2022/04/20 10:30:47;;;;;;;2.28;1.70;;;14.80;85.30;;;;;;4974938;28;20030;-55
2022/04/20 10:33:16;;;;;;;2.15;2.05;;;14.90;84.50;;;;;;4988493;28;20130;-60
2022/04/20 10:35:54;;;;;;;2.55;1.63;;;14.90;86.90;;;;;;4989900;28;20023;-59
2022/04/20 10:38:20;;;;;;;2.15;1.40;;;15.20;86.30;;;;;;4997916;28;20089;-60
2022/04/20 10:40:55;;;;;;;3.08;1.60;;;15.50;84.80;;;;;;4996346;28;20030;-59
2022/04/20 10:43:25;;;;;;;3.33;1.90;;;15.70;85.70;;;;;;4971886;28;20688;-59
2022/04/20 10:46:03;;;;;;;2.63;1.80;;;16.00;83.00;;;;;;4989483;28;20033;-60
2022/04/20 10:48:51;;;;;;;5.40;1.80;;;16.00;85.20;;;;;;4986842;28;20126;-58
2022/04/20 10:51:19;;;;;;;3.15;1.65;;;16.20;82.20;;;;;;4989513;28;20065;-59
2022/04/20 10:53:48;;;;;;;2.63;1.83;;;16.10;83.70;;;;;;4990130;28;20030;-57
2022/04/20 10:56:14;;;;;;;1.90;1.48;;;16.20;82.10;;;;;;4989840;28;20019;-59
2022/04/20 10:58:51;;;;;;;2.47;2.28;;;16.20;84.20;;;;;;4989689;28;20035;-59
2022/04/20 11:01:17;;;;;;;1.80;1.70;;;15.90;82.90;;;;;;4971732;28;20034;-57
2022/04/20 11:03:57;;;;;;;2.15;1.80;;;15.80;82.30;;;;;;4972661;28;20030;-58
2022/04/20 11:06:27;;;;;;;2.25;1.75;;;15.70;82.40;;;;;;4992945;28;20032;-61
2022/04/20 11:08:52;;;;;;;1.50;1.40;;;15.80;83.20;;;;;;4993054;28;20034;-58
2022/04/20 11:19:50;;;;;;;3.00;1.80;;;16.30;82.30;;;;;;4992433;28;20126;-58
2022/04/20 11:22:16;;;;;;;3.25;1.75;;;16.40;80.50;;;;;;4991993;28;20026;-58
2022/04/20 11:24:42;;;;;;;2.40;1.70;;;16.20;81.40;;;;;;4992477;28;20117;-58
2022/04/20 11:27:08;;;;;;;4.25;2.30;;;16.20;82.70;;;;;;4992829;28;20030;-58
2022/04/20 11:29:34;;;;;;;4.18;2.30;;;16.30;82.00;;;;;;4992770;28;20022;-55
2022/04/20 11:32:02;;;;;;;5.63;2.22;;;16.00;81.30;;;;;;4992484;28;20039;-58
2022/04/20 11:34:31;;;;;;;3.85;1.52;;;16.00;82.90;;;;;;4992893;28;20056;-57
2022/04/20 11:37:00;;;;;;;3.45;1.92;;;16.20;82.40;;;;;;4992367;28;20034;-59
2022/04/20 11:39:27;;;;;;;1.70;1.35;;;16.30;81.80;;;;;;4991646;28;20026;-58
2022/04/20 11:41:56;;;;;;;2.65;1.90;;;16.50;81.80;;;;;;4992141;28;20046;-54
2022/04/20 11:44:27;;;;;;;1.58;1.42;;;16.60;79.60;;;;;;4992847;28;20449;-55
2022/04/20 11:47:01;;;;;;;1.50;1.40;;;16.60;80.60;;;;;;4992424;28;20146;-58
2022/04/20 11:49:44;;;;;;;2.97;1.67;;;16.60;81.20;;;;;;4991551;28;20038;-59
2022/04/20 11:52:14;;;;;;;2.97;1.63;;;16.60;80.90;;;;;;4992022;28;20046;-58
2022/04/20 11:54:41;;;;;;;1.77;1.50;;;16.60;79.50;;;;;;4992652;28;20187;-60
2022/04/20 11:57:09;;;;;;;1.80;1.50;;;16.40;79.60;;;;;;4992306;28;20486;-54
2022/04/20 11:59:45;;;;;;;2.22;1.73;;;16.20;79.40;;;;;;4992273;28;20030;-56
2022/04/20 12:02:14;;;;;;;;;;;16.20;80.30;;;;;;4992122;28;20041;-60
2022/04/20 12:04:41;;;;;;;1.67;1.58;;;16.10;81.60;;;;;;4992390;28;19932;-58
2022/04/20 12:07:08;;;;;;;3.67;1.90;;;16.20;80.50;;;;;;4990886;28;20026;-56
2022/04/20 12:09:38;;;;;;;1.85;1.35;;;16.20;79.80;;;;;;4991657;28;20042;-58
2022/04/20 12:12:06;;;;;;;1.73;1.52;;;16.40;80.70;;;;;;4974084;28;20022;-57
2022/04/20 12:14:40;;;;;;;1.85;1.27;;;16.60;80.20;;;;;;4991463;28;20528;-58
2022/04/20 12:17:11;;;;;;;1.48;1.38;;;16.70;79.90;;;;;;4973750;28;20053;-59
2022/04/20 12:19:38;;;;;;;5.45;1.83;;;16.80;81.30;;;;;;4989358;28;20026;-59
2022/04/20 12:22:04;;;;;;;4.95;1.60;;;16.90;79.30;;;;;;4972065;28;20030;-59
2022/04/20 12:24:29;;;;;;;2.05;1.77;;;16.90;78.70;;;;;;4984771;28;20153;-55
2022/04/20 12:26:56;;;;;;;1.13;1.02;;;16.70;78.30;;;;;;4991306;28;20042;-57
2022/04/20 12:29:23;;;;;;;2.72;2.03;;;16.70;79.50;;;;;;4991505;28;20125;-58
2022/04/20 12:31:51;;;;;;;1.75;1.65;;;16.70;78.70;;;;;;5013576;23;20034;-52
2022/04/20 12:34:18;;;;;;;2.65;1.65;;;16.60;79.70;;;;;;5010613;28;20030;-56
2022/04/20 12:36:51;;;;;;;1.70;1.60;;;16.60;77.80;;;;;;5009548;28;20030;-53
2022/04/20 12:39:27;;;;;;;2.65;1.80;;;16.80;81.50;;;;;;5009427;28;20611;-51
2022/04/20 12:41:55;;;;;;;1.85;1.70;;;16.70;77.20;;;;;;5016822;28;20117;-52
2022/04/20 12:44:35;;;;;;;1.58;1.48;;;16.40;79.60;;;;;;4993396;28;20061;-56
2022/04/20 12:47:15;;;;;;;1.88;1.50;;;16.50;78.80;;;;;;4996578;28;20081;-54
2022/04/20 12:50:04;;;;;;;2.83;1.75;;;16.60;78.50;;;;;;5000442;28;20409;-58
2022/04/20 12:52:30;;;;;;;2.90;1.95;;;16.70;77.70;;;;;;5003258;28;20066;-55
2022/04/20 12:55:07;;;;;;;1.50;1.30;;;16.70;77.10;;;;;;4996255;28;20077;-51
2022/04/20 13:03:07;;;;;;;1.98;1.77;;;16.30;78.40;;;;;;4990917;28;20485;-53
2022/04/20 13:05:42;;;;;;;1.88;1.48;;;16.20;78.20;;;;;;4990638;28;20165;-55
2022/04/20 13:08:09;;;;;;;3.35;1.38;;;16.10;78.50;;;;;;4990715;28;20030;-56
2022/04/20 13:10:36;;;;;;;1.65;1.40;;;16.00;78.20;;;;;;4973892;28;20022;-58
2022/04/20 13:13:02;;;;;;;2.35;1.20;;;16.10;79.00;;;;;;4990315;28;20054;-54
2022/04/20 13:15:31;;;;;;;1.63;1.52;;;16.20;77.20;;;;;;4991291;28;20065;-57
2022/04/20 13:17:57;;;;;;;2.78;1.27;;;16.30;77.60;;;;;;4990249;28;20521;-57
2022/04/20 13:20:25;;;;;;;2.17;1.55;;;16.40;78.50;;;;;;4990573;28;20033;-53
2022/04/20 13:22:51;;;;;;;1.83;1.40;;;16.50;76.70;;;;;;4975950;28;20030;-57
2022/04/20 13:28:00;;;;;;;2.00;1.42;;;16.60;76.80;;;;;;4990355;28;20084;-54
2022/04/20 13:30:38;;;;;;;1.30;1.20;;;16.70;75.80;;;;;;5000635;28;20681;-57
2022/04/20 13:33:10;;;;;;;2.70;1.08;;;16.70;77.40;;;;;;4997131;28;20065;-53
2022/04/20 13:35:37;;;;;;;1.50;1.40;;;17.00;78.50;;;;;;4990370;28;20061;-54
2022/04/20 13:38:03;;;;;;;4.28;1.88;;;17.10;77.90;;;;;;4990256;28;20084;-54
2022/04/20 13:40:30;;;;;;;1.90;1.80;;;17.20;77.70;;;;;;4990996;28;20039;-56
2022/04/20 13:42:57;;;;;;;1.95;1.80;;;17.20;77.00;;;;;;4990196;28;20218;-55
2022/04/20 13:45:23;;;;;;;3.45;2.10;;;17.20;76.80;;;;;;4990340;28;20049;-54
2022/04/20 13:47:48;;;;;;;2.97;2.33;;;17.10;79.20;;;;;;4990454;28;20023;-54
2022/04/20 13:50:14;;;;;;;3.15;2.08;;;17.10;77.20;;;;;;4991269;28;20426;-59
2022/04/20 13:52:40;;;;;;;3.15;2.03;;;17.00;76.90;;;;;;4989778;28;20409;-53
2022/04/20 13:55:07;;;;;;;6.82;2.47;;;17.00;78.40;;;;;;4991334;28;20018;-50
2022/04/20 13:57:33;;;;;;;2.28;2.08;;;16.90;78.40;;;;;;4972697;28;20037;-54
2022/04/20 14:00:00;;;;;;;1.92;1.70;;;17.10;81.30;;;;;;4994092;28;20026;-56
2022/04/20 14:02:26;;;;;;;1.95;1.48;;;17.30;75.40;;;;;;4989945;28;20109;-54
2022/04/20 14:04:52;;;;;;;2.35;1.33;;;17.40;76.70;;;;;;4994020;28;20018;-54
2022/04/20 14:07:18;;;;;;;2.17;1.77;;;17.50;76.10;;;;;;5009748;28;20048;-53
2022/04/20 14:09:44;;;;;;;1.88;1.77;;;17.70;75.80;;;;;;5008646;28;20038;-56
2022/04/20 14:12:10;;;;;;;2.05;1.85;;;17.70;75.90;;;;;;5009912;28;20460;-54
2022/04/20 14:14:35;;;;;;;2.65;1.75;;;17.30;75.10;;;;;;4991104;28;20030;-57
2022/04/20 14:17:01;;;;;;;2.20;2.00;;;17.20;76.40;;;;;;4989498;28;20054;-56
2022/04/20 14:19:26;;;;;;;1.45;1.35;;;17.20;74.70;;;;;;5000666;28;20069;-55
2022/04/20 14:21:52;;;;;;;2.03;1.40;;;17.20;77.40;;;;;;5008876;28;20037;-54
2022/04/20 14:24:19;;;;;;;1.60;1.50;;;17.40;76.00;;;;;;4994455;28;20049;-52
2022/04/20 14:32:15;;;;;;;2.67;1.40;;;17.60;75.20;;;;;;5005387;28;20041;-56
2022/04/20 14:34:42;;;;;;;1.95;1.85;;;17.80;74.70;;;;;;4989833;28;20054;-54
2022/04/20 14:37:09;;;;;;;2.72;1.80;;;18.00;75.20;;;;;;4989624;28;20022;-53
2022/04/20 14:39:35;;;;;;;2.28;2.05;;;18.10;76.60;;;;;;5000979;28;20416;-56
2022/04/20 14:42:02;;;;;;;2.40;1.90;;;18.10;75.50;;;;;;5012977;28;20102;-54
2022/04/20 14:44:30;;;;;;;2.80;2.00;;;18.20;74.70;;;;;;5004606;28;20034;-55
2022/04/20 14:46:56;;;;;;;2.05;1.85;;;18.10;74.40;;;;;;4993747;28;20663;-54
2022/04/20 14:49:23;;;;;;;4.72;2.25;;;18.00;73.20;;;;;;4992646;28;20077;-52
2022/04/20 14:51:49;;;;;;;2.22;2.00;;;17.80;73.80;;;;;;4975777;28;20030;-53
2022/04/20 14:54:15;;;;;;;2.50;2.30;;;17.60;74.70;;;;;;4993197;28;20030;-51
2022/04/20 14:56:42;;;;;;;3.22;2.17;;;17.50;75.10;;;;;;4994276;28;20585;-51
2022/04/20 14:59:07;;;;;;;2.10;1.90;;;17.40;76.90;;;;;;4993239;28;20037;-53
2022/04/20 15:01:35;;;;;;;3.17;1.70;;;17.20;75.60;;;;;;4994168;28;20030;-53
2022/04/20 15:04:02;;;;;;;3.92;1.92;;;17.20;76.80;;;;;;4994140;28;20030;-55
2022/04/20 15:06:29;;;;;;;4.00;1.98;;;16.90;75.60;;;;;;4993190;28;20054;-56
2022/04/20 15:08:55;;;;;;;3.28;2.53;;;16.80;75.90;;;;;;4993853;28;20018;-55
2022/04/20 15:11:21;;;;;;;2.38;2.17;;;16.80;76.70;;;;;;5001710;28;20018;-55
2022/04/20 15:13:48;;;;;;;2.33;2.13;;;16.70;76.40;;;;;;4975471;28;20137;-55
2022/04/20 15:16:15;;;;;;;7.45;2.67;;;16.70;77.60;;;;;;4992448;28;20038;-53
2022/04/20 15:18:40;;;;;;;3.63;2.33;;;16.70;78.80;;;;;;4992989;28;20026;-54
2022/04/20 15:21:06;;;;;;;3.10;2.60;;;16.80;78.60;;;;;;4993573;28;20165;-52
2022/04/20 15:23:32;;;;;;;4.35;2.63;;;16.70;78.70;;;;;;4993382;28;20062;-52
2022/04/20 15:25:58;;;;;;;4.93;2.67;;;16.60;79.10;;;;;;4993069;28;20547;-52
2022/04/20 15:28:24;;;;;;;5.07;2.80;;;16.70;79.20;;;;;;4995606;28;20030;-53
2022/04/20 15:30:51;;;;;;;2.70;2.50;;;16.80;80.60;;;;;;4992652;28;20027;-54
2022/04/20 15:33:17;;;;;;;4.00;2.38;;;16.80;78.60;;;;;;4991775;28;20077;-53
2022/04/20 15:35:43;;;;;;;3.25;2.95;;;16.80;79.30;;;;;;4994228;28;20018;-56
2022/04/20 15:38:09;;;;;;;2.75;2.55;;;16.80;78.80;;;;;;4992078;28;20025;-57
2022/04/20 15:40:35;;;;;;;6.25;3.25;;;16.80;79.50;;;;;;4992845;28;20060;-55
2022/04/20 15:43:03;;;;;;;3.35;2.88;;;16.70;80.30;;;;;;5006306;28;20699;-50
2022/04/20 15:45:29;;;;;;;5.18;3.35;;;16.70;81.20;;;;;;4994561;28;20105;-52
2022/04/20 15:47:54;;;;;;;4.95;3.63;;;16.60;81.40;;;;;;5011931;28;20022;-55
2022/04/20 15:50:21;;;;;;;4.25;3.78;;;16.60;81.70;;;;;;5009961;28;20541;-56
2022/04/20 15:52:46;;;;;;;5.32;3.67;;;16.30;81.30;;;;;;4992233;28;20054;-53
2022/04/20 16:00:44;;;;;;;4.53;3.08;;;15.90;82.50;;;;;;4981250;28;20037;-51
2022/04/20 16:03:10;;;;;;;4.47;3.38;;;15.80;83.40;;;;;;4993096;28;20023;-52